Time;durP1;ratioP1;P1;durP2;ratioP2;P2;SDS_P1;SDS_P2;PMS_P1;PMS_P2;Temp;Humidity;BMP_temperature;BMP_pressure;BME280_temperature;BME280_humidity;BME280_pressure;Samples;Min_cycle;Max_cycle;Signal;HPM_P1;HPM_P2
2023/05/01 00:02:00;;;;;;;9.27;5.38;;;;;;;9.15;49.81;100702.34;10151148;29;20044;-77
2023/05/01 00:07:03;;;;;;;7.55;4.32;;;;;;;8.99;49.58;100691.81;10183066;29;20567;-77
2023/05/01 00:12:06;;;;;;;8.93;3.78;;;;;;;8.93;49.08;100682.41;10171165;29;20412;-77
2023/05/01 00:17:10;;;;;;;9.50;4.25;;;;;;;8.98;48.93;100680.25;10174060;29;20048;-76
2023/05/01 00:22:13;;;;;;;7.88;3.97;;;;;;;8.95;48.74;100667.06;10169182;29;20107;-77
2023/05/01 00:27:16;;;;;;;5.97;4.07;;;;;;;8.89;49.49;100670.19;10166921;29;20075;-77
2023/05/01 00:32:20;;;;;;;6.65;4.45;;;;;;;8.86;49.20;100667.72;10148565;29;20496;-77
2023/05/01 00:37:24;;;;;;;8.98;3.95;;;;;;;8.71;48.84;100664.28;10162782;29;20055;-77
2023/05/01 00:42:27;;;;;;;7.82;3.88;;;;;;;8.75;48.66;100655.06;10161461;29;20095;-78
2023/05/01 00:47:31;;;;;;;7.20;3.75;;;;;;;8.82;48.47;100656.34;10170827;29;20044;-77
2023/05/01 00:52:35;;;;;;;4.35;2.95;;;;;;;8.82;48.18;100652.81;10145483;29;20059;-77
2023/05/01 00:57:37;;;;;;;8.27;3.47;;;;;;;8.81;48.39;100643.94;10160850;29;20045;-77
2023/05/01 01:02:42;;;;;;;8.75;3.92;;;;;;;8.81;48.43;100643.06;10140631;29;20060;-77
2023/05/01 01:07:53;;;;;;;9.65;4.35;;;;;;;8.78;48.70;100633.44;10155638;29;20046;-77
2023/05/01 01:13:04;;;;;;;8.63;3.50;;;;;;;8.67;49.24;100622.59;10157777;29;20096;-77
2023/05/01 01:18:16;;;;;;;8.30;3.58;;;;;;;8.58;49.46;100612.50;10150376;29;20044;-77
2023/05/01 01:23:59;;;;;;;6.93;3.30;;;;;;;8.43;49.33;100613.56;10172050;29;20048;-77
2023/05/01 01:29:21;;;;;;;;;;;;;;;8.45;49.62;100607.13;10112549;29;20052;-76
2023/05/01 01:34:32;;;;;;;7.40;3.30;;;;;;;8.23;49.77;100612.22;10173985;29;19963;-78
2023/05/01 01:39:41;;;;;;;8.20;3.47;;;;;;;8.20;50.13;100593.69;10130354;29;20104;-76
2023/05/01 01:44:49;;;;;;;6.03;3.35;;;;;;;8.16;50.26;100601.06;10150895;29;20064;-77
2023/05/01 01:49:56;;;;;;;8.88;3.53;;;;;;;8.14;50.10;100594.97;10161381;29;20068;-76
2023/05/01 01:55:05;;;;;;;12.70;3.10;;;;;;;8.15;50.01;100584.16;10163262;29;20044;-78
2023/05/01 02:00:10;;;;;;;11.88;3.45;;;;;;;8.23;49.85;100575.63;10178658;29;20044;-78
2023/05/01 02:05:21;;;;;;;7.68;3.53;;;;;;;8.23;49.80;100564.91;10155051;29;20052;-76
2023/05/01 02:10:27;;;;;;;7.97;3.70;;;;;;;8.26;50.07;100558.50;10147341;29;20048;-77
2023/05/01 02:15:31;;;;;;;7.82;3.15;;;;;;;8.30;50.16;100557.31;10163792;29;20044;-77
2023/05/01 02:20:37;;;;;;;6.55;3.53;;;;;;;8.25;50.29;100546.91;10142117;29;20044;-77
2023/05/01 02:25:41;;;;;;;4.35;3.10;;;;;;;8.16;50.48;100559.13;10139556;29;20123;-77
2023/05/01 02:30:45;;;;;;;10.07;3.50;;;;;;;8.24;50.46;100541.69;10158575;29;20064;-77
2023/05/01 02:35:50;;;;;;;7.93;3.08;;;;;;;8.13;50.63;100543.28;10159410;29;20049;-76
2023/05/01 02:40:57;;;;;;;6.55;3.20;;;;;;;8.02;50.69;100531.59;10144839;29;20044;-77
2023/05/01 02:46:03;;;;;;;9.43;3.25;;;;;;;7.99;50.24;100523.78;10152962;29;20044;-77
2023/05/01 02:51:09;;;;;;;6.85;3.28;;;;;;;7.95;50.24;100537.38;10162887;29;20103;-77
2023/05/01 02:56:12;;;;;;;6.63;3.70;;;;;;;7.85;50.58;100522.91;10152396;29;20055;-77
2023/05/01 03:01:15;;;;;;;4.97;3.20;;;;;;;7.79;50.56;100509.06;10137852;29;20048;-77
2023/05/01 03:06:20;;;;;;;5.93;3.35;;;;;;;7.81;50.39;100513.34;10136373;29;20613;-77
2023/05/01 03:11:24;;;;;;;7.28;3.42;;;;;;;7.79;50.43;100501.03;10135015;29;20045;-77
2023/05/01 03:16:27;;;;;;;11.02;3.53;;;;;;;7.71;50.71;100493.56;10142354;29;20477;-78
2023/05/01 03:21:32;;;;;;;6.18;3.22;;;;;;;7.76;50.84;100488.72;10144486;29;20085;-78
2023/05/01 03:26:35;;;;;;;6.25;3.28;;;;;;;7.72;50.61;100476.53;10150984;29;20060;-77
2023/05/01 03:31:38;;;;;;;8.90;3.50;;;;;;;7.63;50.30;100488.72;10154811;29;20040;-77
2023/05/01 03:36:44;;;;;;;8.30;3.30;;;;;;;7.56;50.40;100473.19;10163789;29;20425;-78
2023/05/01 03:41:48;;;;;;;8.50;3.40;;;;;;;7.55;50.53;100467.00;10157083;29;20048;-77
2023/05/01 03:46:57;;;;;;;10.75;3.42;;;;;;;7.46;50.66;100470.25;10148835;29;20094;-77
2023/05/01 03:52:05;;;;;;;6.90;3.40;;;;;;;7.48;50.61;100460.31;10152663;29;20044;-77
2023/05/01 03:57:08;;;;;;;11.45;4.45;;;;;;;7.43;50.80;100459.78;10166913;23;20450;-77
2023/05/01 04:02:11;;;;;;;7.40;3.90;;;;;;;7.44;50.82;100450.81;10185848;29;20046;-76
2023/05/01 04:07:15;;;;;;;6.53;3.95;;;;;;;7.41;50.91;100449.22;10186492;29;20048;-78
2023/05/01 04:12:20;;;;;;;5.32;3.50;;;;;;;7.43;50.94;100452.63;10153523;29;20608;-76
2023/05/01 04:17:24;;;;;;;9.32;4.20;;;;;;;7.44;50.78;100450.81;10150727;29;20044;-76
2023/05/01 04:22:28;;;;;;;9.40;3.75;;;;;;;7.50;50.95;100450.41;10153193;29;20051;-76
2023/05/01 04:27:32;;;;;;;10.95;3.90;;;;;;;7.53;50.47;100450.19;10164256;29;20044;-76
2023/05/01 04:32:35;;;;;;;7.18;4.43;;;;;;;7.59;50.34;100443.56;10170262;29;20440;-77
2023/05/01 04:37:39;;;;;;;8.80;3.60;;;;;;;7.75;50.37;100438.03;10151493;29;20307;-77
2023/05/01 04:42:42;;;;;;;12.98;4.70;;;;;;;7.85;50.61;100436.47;10153291;29;20055;-77
2023/05/01 04:47:48;;;;;;;7.32;3.83;;;;;;;7.89;50.54;100433.44;10160540;29;20455;-78
2023/05/01 04:52:52;;;;;;;8.93;3.92;;;;;;;7.89;50.83;100430.78;10170329;29;20119;-77
2023/05/01 04:57:56;;;;;;;6.97;3.92;;;;;;;8.00;50.60;100430.03;10162515;29;20583;-76
2023/05/01 05:02:59;;;;;;;7.55;3.83;;;;;;;8.11;50.75;100430.13;10159073;29;20066;-77
2023/05/01 05:08:06;;;;;;;10.23;4.03;;;;;;;8.17;50.65;100424.38;10159524;29;20567;-76
2023/05/01 05:13:10;;;;;;;10.60;4.55;;;;;;;8.26;50.32;100424.69;10153587;29;20400;-76
2023/05/01 05:18:14;;;;;;;8.75;3.85;;;;;;;8.41;50.68;100426.25;10153421;29;20071;-77
2023/05/01 05:23:20;;;;;;;5.57;3.65;;;;;;;8.55;50.61;100425.31;10161688;29;20579;-77
2023/05/01 05:28:23;;;;;;;10.05;3.92;;;;;;;8.64;50.84;100416.63;10169236;29;20040;-77
2023/05/01 05:33:27;;;;;;;11.57;3.83;;;;;;;8.84;50.59;100415.16;10160922;29;20521;-77
2023/05/01 05:38:32;;;;;;;9.68;4.43;;;;;;;9.01;50.20;100417.44;10177852;29;20040;-78
2023/05/01 05:43:36;;;;;;;6.75;4.57;;;;;;;9.10;50.22;100418.59;10161605;29;20083;-78
2023/05/01 05:48:41;;;;;;;6.53;4.20;;;;;;;9.24;50.51;100407.72;10159549;29;20078;-77
2023/05/01 05:53:46;;;;;;;8.35;4.32;;;;;;;9.55;50.47;100409.91;10167954;29;20132;-77
2023/05/01 05:58:49;;;;;;;8.02;3.90;;;;;;;9.90;49.71;100391.09;10167501;29;20056;-76
2023/05/01 06:03:52;;;;;;;5.65;3.75;;;;;;;10.05;49.02;100403.31;10172310;29;20063;-75
2023/05/01 06:08:59;;;;;;;5.75;3.75;;;;;;;10.27;48.34;100405.16;10159187;29;20056;-76
2023/05/01 06:14:02;;;;;;;10.80;3.47;;;;;;;10.52;48.48;100395.13;10167924;29;20048;-76
2023/05/01 06:19:06;;;;;;;7.22;3.75;;;;;;;10.70;48.01;100396.34;10175827;29;20064;-77
2023/05/01 06:24:11;;;;;;;9.43;4.78;;;;;;;10.91;47.50;100393.69;10156103;29;20051;-77
2023/05/01 06:29:20;;;;;;;11.02;4.35;;;;;;;10.97;47.04;100390.53;10163640;29;20044;-77
2023/05/01 06:34:23;;;;;;;7.05;4.07;;;;;;;11.32;46.22;100388.59;10175421;29;20095;-76
2023/05/01 06:39:29;;;;;;;8.18;4.40;;;;;;;11.81;46.04;100379.88;10134026;29;20104;-76
2023/05/01 06:44:32;;;;;;;11.48;4.35;;;;;;;11.99;45.32;100385.53;10121412;29;20107;-77
2023/05/01 06:49:36;;;;;;;7.47;4.78;;;;;;;12.19;45.24;100377.53;10118876;29;20055;-76
2023/05/01 06:54:40;;;;;;;7.70;4.28;;;;;;;12.42;44.95;100373.66;10116411;29;20049;-76
2023/05/01 06:59:44;;;;;;;12.55;4.57;;;;;;;12.64;44.65;100371.75;10124821;29;20094;-76
2023/05/01 07:04:47;;;;;;;7.95;4.18;;;;;;;12.79;44.59;100365.00;10143887;29;20135;-76
2023/05/01 07:09:51;;;;;;;5.03;3.60;;;;;;;12.90;44.12;100369.41;10137823;29;20047;-76
2023/05/01 07:14:53;;;;;;;7.65;4.50;;;;;;;12.93;43.66;100366.44;10120095;29;20052;-75
2023/05/01 07:19:56;;;;;;;8.77;4.45;;;;;;;13.03;44.03;100367.28;10143561;29;20052;-76
2023/05/01 07:25:02;;;;;;;12.15;4.90;;;;;;;13.15;44.15;100365.31;10143945;29;21313;-77
2023/05/01 07:30:06;;;;;;;7.32;4.25;;;;;;;13.16;43.09;100358.91;10136711;29;20047;-77
2023/05/01 07:35:10;;;;;;;8.13;4.50;;;;;;;13.47;43.86;100359.66;10142182;29;20055;-76
2023/05/01 07:40:14;;;;;;;11.02;4.22;;;;;;;13.77;42.62;100357.72;10142254;29;20527;-78
2023/05/01 07:45:17;;;;;;;8.93;4.53;;;;;;;14.20;42.10;100343.66;10135480;29;20486;-77
2023/05/01 07:50:21;;;;;;;11.85;4.55;;;;;;;14.50;41.41;100341.69;10145662;29;20056;-76
2023/05/01 07:55:25;;;;;;;11.45;4.30;;;;;;;15.01;40.82;100337.53;10128586;29;20139;-77
2023/05/01 08:00:29;;;;;;;10.65;4.20;;;;;;;15.53;41.54;100339.53;10124864;29;20285;-76
2023/05/01 08:05:32;;;;;;;6.50;4.22;;;;;;;16.05;40.21;100340.38;10142774;29;20216;-75
2023/05/01 08:10:39;;;;;;;6.43;4.60;;;;;;;16.31;39.32;100334.91;10145970;29;20061;-75
2023/05/01 08:15:41;;;;;;;7.20;4.07;;;;;;;16.74;39.90;100335.75;10136723;29;20048;-76
2023/05/01 08:20:45;;;;;;;8.43;4.20;;;;;;;17.29;39.65;100325.34;10146483;29;20079;-76
2023/05/01 08:25:51;;;;;;;9.48;4.22;;;;;;;17.51;37.95;100318.38;10133685;29;20048;-76
2023/05/01 08:30:54;;;;;;;7.20;4.07;;;;;;;17.64;38.06;100318.69;10148405;29;20123;-77
2023/05/01 08:35:57;;;;;;;7.70;4.30;;;;;;;17.60;37.54;100326.31;10143781;29;20772;-76
2023/05/01 08:41:02;;;;;;;9.35;4.00;;;;;;;17.30;38.45;100319.72;10116254;29;20119;-76
2023/05/01 08:46:08;;;;;;;7.88;4.10;;;;;;;17.76;37.97;100320.03;10135531;29;20044;-75
2023/05/01 08:51:13;;;;;;;5.07;4.00;;;;;;;18.29;38.29;100313.13;10141256;29;20052;-76
2023/05/01 08:56:18;;;;;;;7.15;3.92;;;;;;;18.23;37.01;100313.78;10132213;29;20052;-75
2023/05/01 09:01:23;;;;;;;7.60;3.90;;;;;;;18.01;38.13;100307.25;10137433;29;20052;-75
2023/05/01 09:06:27;;;;;;;5.43;3.88;;;;;;;18.06;38.44;100298.59;10141824;29;20408;-77
2023/05/01 09:11:32;;;;;;;5.47;4.10;;;;;;;18.29;37.44;100295.94;10149335;29;20095;-77
2023/05/01 09:16:35;;;;;;;5.05;3.70;;;;;;;18.62;37.69;100293.88;10162497;29;20062;-75
2023/05/01 09:21:38;;;;;;;6.90;3.70;;;;;;;18.75;36.48;100288.69;10147238;29;20056;-78
2023/05/01 09:26:42;;;;;;;8.30;4.10;;;;;;;19.32;36.54;100289.34;10141466;29;20435;-76
2023/05/01 09:31:45;;;;;;;6.35;3.70;;;;;;;19.68;36.44;100281.34;10146131;29;20432;-77
2023/05/01 09:36:47;;;;;;;6.80;3.75;;;;;;;19.37;36.04;100276.84;10142516;29;20550;-76
2023/05/01 09:41:52;;;;;;;5.43;3.70;;;;;;;19.70;35.81;100268.38;10157979;29;20085;-76
2023/05/01 09:46:55;;;;;;;6.03;3.70;;;;;;;19.96;36.56;100272.50;10139371;29;20055;-76
2023/05/01 09:52:11;;;;;;;5.22;3.47;;;;;;;20.63;34.57;100264.16;10139059;29;20057;-75
2023/05/01 09:57:15;;;;;;;5.97;3.40;;;;;;;20.58;33.96;100261.16;10145464;29;20058;-76
2023/05/01 10:02:28;;;;;;;4.85;2.85;;;;;;;20.02;35.05;100263.56;10150529;29;20063;-77
2023/05/01 10:07:32;;;;;;;4.07;3.03;;;;;;;20.21;35.52;100256.69;10124516;29;20044;-78
2023/05/01 10:12:36;;;;;;;4.47;3.20;;;;;;;20.74;35.33;100257.34;10148744;29;20048;-76
2023/05/01 10:17:41;;;;;;;7.00;3.03;;;;;;;21.31;34.13;100252.84;10154444;29;20051;-77
2023/05/01 10:22:44;;;;;;;4.68;3.00;;;;;;;21.89;34.48;100254.31;10143172;29;20628;-77
2023/05/01 10:27:50;;;;;;;7.40;2.97;;;;;;;22.25;32.76;100244.19;10134015;29;20447;-75
2023/05/01 10:32:53;;;;;;;4.45;2.70;;;;;;;22.08;32.57;100249.16;10141185;29;20051;-78
2023/05/01 10:38:00;;;;;;;2.97;2.40;;;;;;;22.57;32.70;100236.31;10130346;29;20055;-77
2023/05/01 10:43:24;;;;;;;4.90;2.03;;;;;;;23.08;31.80;100236.59;10120844;29;20424;-76
2023/05/01 10:48:52;;;;;;;3.20;1.90;;;;;;;23.86;30.67;100233.16;10135117;29;20063;-81
2023/05/01 10:54:25;;;;;;;4.28;1.75;;;;;;;22.62;31.06;100231.88;10144277;29;21224;-76
2023/05/01 11:00:08;;;;;;;4.07;1.80;;;;;;;23.46;30.37;100221.44;10136495;29;20059;-73
2023/05/01 11:05:11;;;;;;;2.45;1.80;;;;;;;23.82;30.36;100213.56;10135622;29;21779;-75
2023/05/01 11:10:26;;;;;;;2.08;1.80;;;;;;;23.04;30.54;100207.06;10140438;29;20044;-76
2023/05/01 11:15:33;;;;;;;3.00;1.48;;;;;;;23.76;30.15;100197.97;10138564;29;20048;-76
2023/05/01 11:21:01;;;;;;;2.67;1.88;;;;;;;23.74;28.33;100193.72;10145006;29;20047;-76
2023/05/01 11:26:07;;;;;;;1.58;0.90;;;;;;;23.62;28.95;100180.69;10138101;29;20518;-76
2023/05/01 11:31:17;;;;;;;3.38;1.25;;;;;;;23.58;29.95;100189.56;10134518;29;20048;-76
2023/05/01 11:36:20;;;;;;;4.35;1.83;;;;;;;23.70;29.88;100181.53;10116433;29;20048;-76
2023/05/01 11:41:24;;;;;;;2.33;1.85;;;;;;;24.52;29.21;100179.94;10127266;29;20071;-77
2023/05/01 11:46:29;;;;;;;2.40;1.30;;;;;;;26.02;29.50;100171.50;10145528;29;20082;-77
2023/05/01 11:51:32;;;;;;;2.85;1.30;;;;;;;26.37;28.27;100175.53;10148056;29;20051;-76
2023/05/01 11:56:39;;;;;;;2.53;1.38;;;;;;;24.26;28.58;100172.66;10136983;29;20044;-76
2023/05/01 12:01:45;;;;;;;2.65;1.35;;;;;;;23.06;29.15;100167.47;10138771;29;21293;-76
2023/05/01 12:06:48;;;;;;;2.30;1.23;;;;;;;23.38;29.26;100163.03;10136200;29;20060;-77
2023/05/01 12:11:53;;;;;;;3.70;1.27;;;;;;;24.12;29.84;100154.56;10136648;29;20727;-77
2023/05/01 12:16:57;;;;;;;3.10;1.30;;;;;;;24.57;28.10;100158.09;10137846;29;20048;-76
2023/05/01 12:22:06;;;;;;;1.50;1.02;;;;;;;23.46;29.95;100163.88;10139335;29;20096;-76
2023/05/01 12:27:10;;;;;;;2.40;1.27;;;;;;;22.98;29.61;100154.00;10123334;29;20581;-77
2023/05/01 12:32:15;;;;;;;2.38;1.35;;;;;;;21.81;31.53;100155.22;10137498;29;20067;-76
2023/05/01 12:37:18;;;;;;;2.70;1.17;;;;;;;21.73;31.47;100150.75;10120830;29;20048;-76
2023/05/01 12:42:21;;;;;;;3.60;1.25;;;;;;;22.16;30.26;100147.78;10139632;29;20055;-75
2023/05/01 12:47:26;;;;;;;2.63;1.30;;;;;;;21.70;30.77;100145.69;10141347;29;20120;-76
2023/05/01 12:52:28;;;;;;;2.65;1.38;;;;;;;21.22;32.22;100149.19;10138770;29;20048;-76
2023/05/01 12:57:31;;;;;;;2.03;1.20;;;;;;;21.20;33.77;100143.09;10135608;29;20531;-75
2023/05/01 13:02:36;;;;;;;1.58;1.23;;;;;;;22.29;31.83;100131.38;10146881;29;20052;-77
2023/05/01 13:07:39;;;;;;;1.50;1.38;;;;;;;22.76;29.35;100143.28;10136966;29;20056;-77
2023/05/01 13:12:45;;;;;;;3.67;1.20;;;;;;;23.83;28.50;100127.50;10129607;29;20048;-76
2023/05/01 13:17:49;;;;;;;1.67;1.30;;;;;;;24.87;26.79;100122.59;10136946;29;20066;-75
2023/05/01 13:22:52;;;;;;;1.48;1.23;;;;;;;25.01;26.36;100127.97;10135830;29;20056;-76
2023/05/01 13:27:55;;;;;;;3.78;1.20;;;;;;;23.35;29.81;100127.84;10146496;29;20059;-76
2023/05/01 13:33:00;;;;;;;3.22;1.50;;;;;;;23.21;28.78;100129.78;10111364;29;20078;-76
2023/05/01 13:38:04;;;;;;;4.03;1.60;;;;;;;24.15;28.14;100113.81;10135173;29;20044;-77
2023/05/01 13:43:13;;;;;;;2.20;1.27;;;;;;;25.60;26.59;100110.03;10133173;29;20210;-77
2023/05/01 13:48:25;;;;;;;1.30;1.20;;;;;;;24.24;28.13;100111.66;10128624;29;20528;-77
2023/05/01 13:53:29;;;;;;;1.83;1.20;;;;;;;24.69;26.54;100100.59;10138898;29;20135;-76
2023/05/01 13:58:32;;;;;;;2.58;1.13;;;;;;;24.71;28.39;100099.31;10136061;29;20065;-77
2023/05/01 14:03:40;;;;;;;1.88;1.50;;;;;;;25.97;27.23;100098.97;10139432;29;20130;-76
2023/05/01 14:08:45;;;;;;;2.08;1.20;;;;;;;25.48;26.52;100092.59;10141497;29;21274;-76
2023/05/01 14:13:50;;;;;;;1.20;1.08;;;;;;;25.46;26.15;100097.53;10142659;29;20123;-76
2023/05/01 14:18:55;;;;;;;2.63;0.90;;;;;;;26.10;26.78;100086.97;10134647;29;20139;-77
2023/05/01 14:23:59;;;;;;;1.15;1.05;;;;;;;27.36;25.55;100085.66;10144194;29;20188;-77
2023/05/01 14:29:02;;;;;;;1.40;0.82;;;;;;;26.76;25.28;100083.16;10131663;29;20045;-77
2023/05/01 14:34:06;;;;;;;1.13;0.80;;;;;;;22.72;28.47;100078.19;10138316;29;20061;-76
2023/05/01 14:39:10;;;;;;;0.90;0.75;;;;;;;22.09;31.28;100084.00;10136561;29;20052;-77
2023/05/01 14:44:15;;;;;;;0.70;0.70;;;;;;;22.09;31.10;100092.22;10128706;29;20055;-76
2023/05/01 14:49:23;;;;;;;1.02;0.93;;;;;;;23.56;28.88;100090.22;10129241;29;20060;-77
2023/05/01 14:54:25;;;;;;;2.33;0.98;;;;;;;22.52;29.65;100086.41;10134080;29;20066;-77
2023/05/01 14:59:28;;;;;;;1.80;0.90;;;;;;;22.59;29.93;100083.66;10127896;29;20052;-76
2023/05/01 15:04:32;;;;;;;0.70;0.70;;;;;;;22.08;29.81;100079.59;10132078;29;20055;-77
2023/05/01 15:09:35;;;;;;;3.25;0.80;;;;;;;21.48;31.17;100078.53;10134764;29;20064;-75
2023/05/01 15:14:38;;;;;;;0.70;0.70;;;;;;;21.67;31.11;100077.78;10140268;29;20058;-77
2023/05/01 15:19:42;;;;;;;1.15;0.73;;;;;;;22.73;30.46;100074.38;10141655;29;20083;-80
2023/05/01 15:24:45;;;;;;;3.00;0.90;;;;;;;23.46;27.97;100071.53;10126895;29;21309;-78
2023/05/01 15:29:48;;;;;;;1.80;1.10;;;;;;;23.57;28.15;100070.84;10138351;29;20183;-80
2023/05/01 15:34:55;;;;;;;2.85;0.95;;;;;;;24.02;27.44;100068.09;10144571;29;20066;-79
2023/05/01 15:39:59;;;;;;;0.70;0.70;;;;;;;23.40;29.31;100065.00;10144256;29;20058;-80
2023/05/01 15:45:02;;;;;;;0.80;0.80;;;;;;;23.17;29.98;100067.38;10140516;29;20062;-78
2023/05/01 15:50:10;;;;;;;1.83;1.00;;;;;;;22.95;29.85;100067.63;10154411;29;20051;-79
2023/05/01 15:55:13;;;;;;;1.80;1.17;;;;;;;22.45;30.17;100072.72;10129026;29;20052;-78
2023/05/01 16:00:17;;;;;;;1.48;0.85;;;;;;;21.88;31.42;100069.44;10134489;29;20058;-78
2023/05/01 16:05:22;;;;;;;1.25;1.00;;;;;;;21.17;32.78;100077.97;10150191;29;20134;-80
2023/05/01 16:10:25;;;;;;;1.00;0.90;;;;;;;20.62;33.34;100078.78;10139117;29;20111;-81
2023/05/01 16:15:30;;;;;;;1.65;1.05;;;;;;;20.20;34.12;100085.94;10146433;29;20052;-78
2023/05/01 16:20:41;;;;;;;1.02;0.90;;;;;;;20.62;34.29;100076.06;10144006;29;20049;-78
2023/05/01 16:25:44;;;;;;;1.13;1.02;;;;;;;20.45;34.43;100087.25;10135895;29;20139;-79
2023/05/01 16:30:47;;;;;;;1.40;1.05;;;;;;;20.47;34.45;100082.44;10128079;29;20167;-79
2023/05/01 16:35:52;;;;;;;1.10;1.00;;;;;;;20.71;33.70;100083.91;10135548;29;20051;-78
2023/05/01 16:40:55;;;;;;;1.65;0.90;;;;;;;20.56;34.41;100080.41;10132304;29;20164;-79
2023/05/01 16:45:58;;;;;;;1.00;0.93;;;;;;;20.30;34.30;100089.19;10134076;29;20135;-81
2023/05/01 16:51:04;;;;;;;2.47;1.10;;;;;;;20.33;33.86;100094.28;10155962;29;20059;-79
2023/05/01 16:56:09;;;;;;;1.30;1.00;;;;;;;19.39;35.89;100092.31;10128189;29;20048;-76
2023/05/01 17:01:12;;;;;;;1.25;1.00;;;;;;;20.02;34.68;100094.56;10137945;29;20047;-77
2023/05/01 17:06:16;;;;;;;1.88;1.02;;;;;;;19.51;35.14;100091.84;10116880;29;20070;-76
2023/05/01 17:11:19;;;;;;;3.28;1.42;;;;;;;19.31;35.73;100094.28;10141905;29;20419;-78
2023/05/01 17:16:22;;;;;;;3.00;0.98;;;;;;;19.28;36.64;100097.38;10135178;29;20054;-78
2023/05/01 17:21:27;;;;;;;1.33;1.23;;;;;;;19.15;36.37;100101.63;10150056;29;20495;-79
2023/05/01 17:26:30;;;;;;;2.13;1.40;;;;;;;18.70;37.65;100116.16;10119944;29;20525;-78
2023/05/01 17:31:33;;;;;;;3.60;1.58;;;;;;;18.35;39.06;100132.94;10136819;29;20064;-78
2023/05/01 17:36:37;;;;;;;2.65;2.05;;;;;;;18.18;39.48;100131.34;10134300;29;20176;-78
2023/05/01 17:41:40;;;;;;;3.13;1.60;;;;;;;18.14;39.95;100143.63;10127279;29;20047;-76
2023/05/01 17:46:43;;;;;;;4.75;2.60;;;;;;;17.99;40.32;100146.28;10123166;29;20055;-78
2023/05/01 17:51:47;;;;;;;2.83;1.92;;;;;;;17.90;40.34;100158.16;10140659;29;20063;-77
2023/05/01 17:56:50;;;;;;;2.25;1.40;;;;;;;17.73;40.39;100154.66;10123923;29;20048;-77
2023/05/01 18:01:52;;;;;;;2.67;1.50;;;;;;;17.50;40.90;100170.91;10145312;29;20052;-76
2023/05/01 18:06:57;;;;;;;4.63;1.50;;;;;;;17.28;41.63;100172.50;10136730;29;20431;-78
2023/05/01 18:12:01;;;;;;;3.33;1.55;;;;;;;17.21;42.44;100182.34;10120433;29;20051;-78
2023/05/01 18:17:03;;;;;;;2.30;1.60;;;;;;;17.26;41.96;100179.94;10138224;29;20048;-78
2023/05/01 18:22:08;;;;;;;2.70;1.70;;;;;;;17.13;42.69;100188.63;10146021;29;20051;-77
2023/05/01 18:27:12;;;;;;;2.15;1.63;;;;;;;16.76;43.13;100194.56;10146746;29;20047;-77
2023/05/01 18:32:15;;;;;;;1.65;1.55;;;;;;;16.30;43.85;100202.28;10129229;29;20135;-77
2023/05/01 18:37:19;;;;;;;2.42;1.73;;;;;;;15.86;47.66;100221.44;10151719;29;20047;-77
2023/05/01 18:42:22;;;;;;;2.80;1.80;;;;;;;15.65;47.95;100243.47;10146551;29;20056;-76
2023/05/01 18:47:25;;;;;;;1.63;1.30;;;;;;;14.81;47.25;100258.41;10143881;29;20063;-78
2023/05/01 18:52:29;;;;;;;2.95;1.90;;;;;;;15.30;46.92;100252.53;10141632;29;20052;-78
2023/05/01 18:57:32;;;;;;;3.25;1.58;;;;;;;15.58;45.71;100256.81;10133284;29;20051;-78
2023/05/01 19:02:35;;;;;;;1.60;1.20;;;;;;;15.68;45.17;100256.69;10134734;29;20066;-77
2023/05/01 19:07:39;;;;;;;1.83;1.40;;;;;;;15.45;45.30;100254.53;10134861;29;20052;-80
2023/05/01 19:12:42;;;;;;;1.30;1.15;;;;;;;15.34;45.74;100260.22;10144753;29;20075;-81
2023/05/01 19:17:45;;;;;;;1.80;1.10;;;;;;;15.07;48.91;100269.28;10149436;29;20056;-77
2023/05/01 19:22:49;;;;;;;1.30;1.20;;;;;;;14.53;51.32;100276.53;10128774;29;20056;-81
2023/05/01 19:27:52;;;;;;;1.75;1.20;;;;;;;14.10;52.75;100283.44;10139076;29;20059;-79
2023/05/01 19:32:56;;;;;;;1.40;1.30;;;;;;;14.19;56.99;100320.34;10160475;29;20138;-77
2023/05/01 19:38:01;;;;;;;2.80;1.13;;;;;;;14.05;53.70;100331.66;10141051;29;20493;-78
2023/05/01 19:43:03;;;;;;;1.38;1.27;;;;;;;13.99;55.19;100340.31;10161283;29;20048;-77
2023/05/01 19:48:07;;;;;;;1.40;1.30;;;;;;;13.77;53.44;100333.44;10160359;29;20052;-78
2023/05/01 19:53:11;;;;;;;1.45;1.35;;;;;;;14.31;53.36;100346.16;10098225;29;20085;-77
2023/05/01 19:58:14;;;;;;;1.85;1.65;;;;;;;13.80;54.69;100350.22;10072545;29;20276;-77
2023/05/01 20:03:17;;;;;;;2.35;2.15;;;;;;;13.28;58.46;100353.25;10079549;29;21337;-80
2023/05/01 20:08:22;;;;;;;4.40;3.05;;;;;;;13.10;59.80;100352.25;10138564;29;20055;-77
2023/05/01 20:13:25;;;;;;;4.55;2.97;;;;;;;12.83;61.60;100361.00;10132558;29;20447;-78
2023/05/01 20:18:28;;;;;;;2.75;2.50;;;;;;;13.17;62.28;100344.44;10148023;29;20123;-78
2023/05/01 20:23:32;;;;;;;3.22;2.50;;;;;;;13.29;62.26;100340.59;10134646;29;20135;-76
2023/05/01 20:28:35;;;;;;;2.78;2.58;;;;;;;13.47;63.30;100348.88;10149738;29;20044;-77
2023/05/01 20:33:38;;;;;;;2.50;2.30;;;;;;;13.54;61.65;100338.34;10133129;29;20131;-77
2023/05/01 20:38:44;;;;;;;4.13;2.70;;;;;;;13.63;60.58;100345.53;10142923;29;20063;-75
2023/05/01 20:43:47;;;;;;;2.55;2.35;;;;;;;13.66;61.30;100347.97;10137171;29;20048;-77
2023/05/01 20:48:50;;;;;;;4.90;2.53;;;;;;;13.76;60.04;100345.25;10146662;29;20052;-77
2023/05/01 20:53:54;;;;;;;4.80;2.55;;;;;;;13.89;59.02;100356.59;10140229;29;20103;-77
2023/05/01 20:58:59;;;;;;;2.53;2.20;;;;;;;13.92;59.51;100359.81;10145006;29;20052;-77
2023/05/01 21:04:03;;;;;;;2.70;2.50;;;;;;;13.89;59.33;100362.81;10147521;29;21570;-78
2023/05/01 21:09:09;;;;;;;2.78;2.58;;;;;;;13.71;59.15;100365.44;10149466;29;20048;-78
2023/05/01 21:14:12;;;;;;;3.30;3.08;;;;;;;13.47;59.35;100371.28;10152452;29;20434;-77
2023/05/01 21:19:15;;;;;;;3.70;3.40;;;;;;;13.41;59.86;100363.78;10129547;29;20119;-78
2023/05/01 21:24:23;;;;;;;3.60;3.28;;;;;;;13.18;60.21;100365.03;10226438;23;20067;-78
2023/05/01 21:29:26;;;;;;;3.92;3.20;;;;;;;13.25;60.38;100368.88;10173615;29;20062;-77
2023/05/01 21:34:29;;;;;;;3.97;3.40;;;;;;;13.39;59.87;100368.47;10172515;29;20115;-77
2023/05/01 21:39:33;;;;;;;3.55;3.25;;;;;;;13.46;59.92;100376.81;10171512;29;20040;-78
2023/05/01 21:44:36;;;;;;;5.85;4.18;;;;;;;13.26;60.04;100384.06;10170346;29;20420;-78
2023/05/01 21:49:39;;;;;;;4.65;4.22;;;;;;;13.09;60.80;100388.31;10169730;29;20035;-78
2023/05/01 21:54:43;;;;;;;4.30;3.88;;;;;;;12.98;61.00;100410.00;10173975;29;20392;-77
2023/05/01 21:59:47;;;;;;;3.95;3.65;;;;;;;12.67;61.97;100403.81;10162107;29;20048;-77
2023/05/01 22:04:53;;;;;;;6.47;4.10;;;;;;;12.64;62.45;100409.47;10170672;29;20080;-78
2023/05/01 22:09:57;;;;;;;4.88;4.47;;;;;;;12.47;63.58;100411.84;10178226;29;20127;-78
2023/05/01 22:15:00;;;;;;;4.38;3.85;;;;;;;12.42;64.10;100418.63;10168305;29;20037;-78
2023/05/01 22:20:04;;;;;;;4.75;4.18;;;;;;;12.33;64.45;100420.28;10159984;29;20143;-77
2023/05/01 22:25:10;;;;;;;4.70;4.30;;;;;;;12.62;63.50;100409.63;10165568;29;20036;-77
2023/05/01 22:30:13;;;;;;;4.78;4.15;;;;;;;12.75;63.01;100423.72;10160907;29;20052;-76
2023/05/01 22:35:16;;;;;;;5.30;4.78;;;;;;;12.62;63.60;100435.75;10158198;29;20071;-77
2023/05/01 22:40:20;;;;;;;5.15;4.70;;;;;;;12.56;64.42;100427.22;10167198;29;20043;-77
2023/05/01 22:45:22;;;;;;;5.82;4.20;;;;;;;12.50;65.49;100429.56;10162330;29;20051;-77
2023/05/01 22:50:25;;;;;;;5.35;4.85;;;;;;;12.22;67.54;100450.81;10159747;29;20052;-76
2023/05/01 22:55:29;;;;;;;5.90;5.40;;;;;;;12.03;68.62;100446.16;10148376;29;20126;-78
2023/05/01 23:00:32;;;;;;;5.93;5.43;;;;;;;12.15;69.59;100452.34;10173866;29;20139;-76
2023/05/01 23:05:35;;;;;;;6.20;5.60;;;;;;;12.13;71.14;100451.63;10166817;29;20060;-78
2023/05/01 23:10:41;;;;;;;6.50;5.90;;;;;;;12.36;73.26;100449.66;10167757;29;20050;-77
2023/05/01 23:15:48;;;;;;;5.70;5.20;;;;;;;12.39;72.25;100457.44;10161846;29;20135;-77
2023/05/01 23:20:52;;;;;;;6.40;5.80;;;;;;;12.47;72.60;100456.78;10152116;29;20107;-77
2023/05/01 23:25:57;;;;;;;6.32;5.72;;;;;;;12.42;72.10;100465.25;10171565;29;20104;-79